Time;durP1;ratioP1;P1;durP2;ratioP2;P2;SDS_P1;SDS_P2;PMS_P1;PMS_P2;Temp;Humidity;BMP_temperature;BMP_pressure;BME280_temperature;BME280_humidity;BME280_pressure;Samples;Min_cycle;Max_cycle;Signal;HPM_P1;HPM_P2
2022/07/26 00:00:53;;;;;;;9.65;8.23;;;;;;;23.79;44.19;93715.63;4990697;28;20470;-82
2022/07/26 00:03:18;;;;;;;9.07;7.85;;;;;;;23.71;44.29;93716.06;5007190;28;20169;-83
2022/07/26 00:05:44;;;;;;;10.80;8.35;;;;;;;23.66;44.37;93711.06;4991967;28;20022;-83
2022/07/26 00:08:09;;;;;;;10.65;8.50;;;;;;;23.39;44.30;93689.84;4992266;28;20533;-82
2022/07/26 00:10:37;;;;;;;11.00;8.20;;;;;;;23.39;44.89;93694.50;4989081;28;20045;-83
2022/07/26 00:13:03;;;;;;;10.02;8.30;;;;;;;23.22;45.35;93703.53;4990486;28;20446;-77
2022/07/26 00:15:28;;;;;;;10.90;7.72;;;;;;;23.13;45.63;93695.81;4990081;28;20519;-82
2022/07/26 00:17:53;;;;;;;10.15;8.68;;;;;;;23.21;45.90;93707.41;4991932;28;20445;-82
2022/07/26 00:20:19;;;;;;;10.48;8.65;;;;;;;23.19;45.50;93679.91;4987435;28;20419;-83
2022/07/26 00:22:44;;;;;;;9.63;8.32;;;;;;;23.19;45.67;93685.31;4989837;28;20029;-83
2022/07/26 00:25:10;;;;;;;12.55;9.07;;;;;;;23.31;45.34;93690.31;4989060;28;20056;-83
2022/07/26 00:27:35;;;;;;;10.98;8.65;;;;;;;23.41;45.22;93697.63;4989496;28;20061;-83
2022/07/26 00:30:02;;;;;;;10.18;8.48;;;;;;;23.39;45.37;93695.28;4990016;28;20098;-83
2022/07/26 00:32:28;;;;;;;9.85;8.15;;;;;;;23.32;45.17;93691.84;4990718;28;20503;-80
2022/07/26 00:34:53;;;;;;;9.68;7.82;;;;;;;23.26;45.29;93685.28;4989588;28;20030;-82
2022/07/26 00:37:19;;;;;;;11.10;8.50;;;;;;;23.24;45.50;93682.19;4993941;28;20040;-82
2022/07/26 00:39:44;;;;;;;10.45;7.97;;;;;;;23.21;45.40;93693.84;4989574;28;20023;-82
2022/07/26 00:42:10;;;;;;;11.18;8.85;;;;;;;22.75;45.51;93629.72;4987889;28;20049;-82
2022/07/26 00:44:38;;;;;;;11.00;8.70;;;;;;;23.13;45.69;93693.88;4990872;28;20386;-82
2022/07/26 00:47:03;;;;;;;10.40;8.02;;;;;;;23.10;45.59;93694.66;4985980;28;20028;-82
2022/07/26 00:49:28;;;;;;;11.82;8.00;;;;;;;23.08;45.82;93686.16;4991404;28;20037;-82
2022/07/26 00:51:54;;;;;;;8.90;7.50;;;;;;;22.94;45.80;93680.00;4989891;28;20033;-82
2022/07/26 00:54:19;;;;;;;11.45;8.75;;;;;;;22.97;45.74;93680.03;4989446;28;20061;-83
2022/07/26 00:56:45;;;;;;;10.40;7.95;;;;;;;23.07;45.80;93690.03;4989850;28;20033;-82
2022/07/26 00:59:10;;;;;;;9.90;8.55;;;;;;;22.99;45.72;93688.50;5006095;28;20029;-82
2022/07/26 01:01:36;;;;;;;10.82;8.38;;;;;;;22.94;45.88;93690.84;4990350;28;20033;-83
2022/07/26 01:04:01;;;;;;;12.38;9.18;;;;;;;22.99;45.43;93688.50;4991076;28;20042;-82
2022/07/26 01:06:27;;;;;;;9.10;7.80;;;;;;;22.84;45.30;93664.53;4989533;28;20431;-82
2022/07/26 01:08:52;;;;;;;8.48;7.47;;;;;;;22.95;45.43;93684.28;4995365;28;20046;-82
2022/07/26 01:11:17;;;;;;;8.48;7.57;;;;;;;22.86;45.14;93667.63;4988107;28;20045;-82
2022/07/26 01:13:49;;;;;;;8.85;7.50;;;;;;;22.88;45.39;93676.94;4990758;28;20033;-83
2022/07/26 01:16:15;;;;;;;8.88;7.18;;;;;;;23.02;45.10;93687.75;4988281;28;20021;-83
2022/07/26 01:18:41;;;;;;;9.68;7.50;;;;;;;22.82;44.73;93659.53;4991657;28;20483;-81
2022/07/26 01:21:09;;;;;;;10.10;7.10;;;;;;;23.07;44.74;93694.69;4987556;28;20117;-82
2022/07/26 01:23:35;;;;;;;9.75;7.38;;;;;;;23.01;44.85;93680.78;4992219;28;20076;-82
2022/07/26 01:26:01;;;;;;;9.93;7.95;;;;;;;23.00;44.50;93684.66;4987647;28;20033;-82
2022/07/26 01:28:26;;;;;;;9.40;7.97;;;;;;;22.98;44.67;93684.25;4992294;28;20057;-82
2022/07/26 01:30:52;;;;;;;8.18;7.00;;;;;;;22.98;44.78;93681.53;5003178;28;20033;-82
2022/07/26 01:33:17;;;;;;;9.50;7.75;;;;;;;22.91;44.82;93676.16;4991443;28;20060;-82
2022/07/26 01:35:43;;;;;;;8.93;6.63;;;;;;;22.91;44.60;93665.31;4988921;28;20262;-83
2022/07/26 01:38:08;;;;;;;10.27;7.28;;;;;;;22.76;44.88;93663.03;4989583;28;20029;-82
2022/07/26 01:40:34;;;;;;;9.75;7.78;;;;;;;22.79;45.24;93668.44;4990798;28;20029;-82
2022/07/26 01:42:59;;;;;;;9.80;7.72;;;;;;;22.74;45.10;93679.69;4991295;28;20030;-82
2022/07/26 01:45:25;;;;;;;8.50;7.65;;;;;;;22.71;45.16;93664.22;4988393;28;20458;-82
2022/07/26 01:47:50;;;;;;;8.15;7.35;;;;;;;22.70;45.00;93659.94;4990007;28;20025;-81
2022/07/26 01:50:17;;;;;;;8.82;7.28;;;;;;;22.76;44.74;93674.66;5002701;28;20026;-81
2022/07/26 01:52:42;;;;;;;8.50;7.68;;;;;;;22.86;44.67;93679.28;4991252;28;20169;-82
2022/07/26 01:55:08;;;;;;;10.30;7.97;;;;;;;22.88;44.42;93684.31;4994504;28;20430;-80
2022/07/26 01:57:34;;;;;;;7.68;6.50;;;;;;;22.68;44.16;93662.28;4993378;28;20034;-82
2022/07/26 01:59:59;;;;;;;8.93;7.43;;;;;;;22.77;44.03;93667.28;4995237;28;20117;-82
2022/07/26 02:02:26;;;;;;;8.73;6.97;;;;;;;22.78;44.26;93683.16;4993573;28;20034;-82
2022/07/26 02:04:57;;;;;;;8.43;6.70;;;;;;;22.82;44.10;93688.56;4989552;28;20022;-79
2022/07/26 02:07:26;;;;;;;10.00;7.22;;;;;;;22.81;44.21;93685.09;4991132;28;20050;-83
2022/07/26 02:09:51;;;;;;;10.15;7.82;;;;;;;22.43;44.24;93646.13;4994494;28;20048;-81
2022/07/26 02:12:17;;;;;;;7.75;6.65;;;;;;;22.73;44.24;93686.28;4993976;28;20021;-82
2022/07/26 02:14:42;;;;;;;8.02;6.80;;;;;;;22.41;43.84;93634.09;4993090;28;20037;-82
2022/07/26 02:17:08;;;;;;;8.02;6.82;;;;;;;22.73;44.20;93692.47;5009551;28;20037;-81
2022/07/26 02:19:35;;;;;;;8.32;6.63;;;;;;;22.70;44.26;93693.25;4995145;28;20056;-82
2022/07/26 02:22:01;;;;;;;8.90;6.95;;;;;;;22.71;44.37;93692.09;4993461;28;20049;-82
2022/07/26 02:24:29;;;;;;;7.93;7.13;;;;;;;22.61;44.33;93673.16;4992994;28;20489;-82
2022/07/26 02:26:56;;;;;;;8.38;7.05;;;;;;;22.71;44.09;93688.59;4994823;28;20112;-81
2022/07/26 02:29:22;;;;;;;9.80;7.82;;;;;;;22.76;44.17;93690.91;4992292;28;20073;-82
2022/07/26 02:31:47;;;;;;;8.45;7.28;;;;;;;22.67;44.27;93687.84;4992713;28;20470;-83
2022/07/26 02:34:13;;;;;;;6.82;6.05;;;;;;;22.52;44.36;93678.22;4994440;28;20413;-83
2022/07/26 02:36:38;;;;;;;8.95;7.10;;;;;;;22.44;44.73;93674.00;4992518;28;20117;-82
2022/07/26 02:39:04;;;;;;;10.55;7.25;;;;;;;22.55;44.72;93699.09;4991864;28;20065;-82
2022/07/26 02:41:30;;;;;;;8.80;7.20;;;;;;;22.54;44.85;93700.25;4991852;28;20113;-82
2022/07/26 02:43:55;;;;;;;8.43;7.05;;;;;;;22.38;44.63;93680.97;4992114;28;20505;-82
2022/07/26 02:46:21;;;;;;;11.68;7.63;;;;;;;22.37;45.04;93684.81;4993069;28;20064;-82
2022/07/26 02:48:46;;;;;;;8.00;7.18;;;;;;;22.39;45.15;93704.94;4995117;28;20529;-82
2022/07/26 02:51:12;;;;;;;9.00;7.65;;;;;;;22.33;45.67;93703.03;4995422;28;20034;-82
2022/07/26 02:53:37;;;;;;;7.95;6.93;;;;;;;22.17;45.43;93679.03;4993127;28;20390;-82
2022/07/26 02:56:03;;;;;;;9.07;7.65;;;;;;;22.23;45.38;93689.13;4989473;28;20271;-79
2022/07/26 02:58:28;;;;;;;9.13;7.60;;;;;;;22.21;45.23;93675.19;4993959;28;20239;-81
2022/07/26 03:00:53;;;;;;;10.07;7.97;;;;;;;22.06;45.31;93660.09;4992312;28;20037;-82
2022/07/26 03:03:19;;;;;;;7.57;6.57;;;;;;;22.24;45.49;93687.94;4992813;28;20363;-82
2022/07/26 03:05:44;;;;;;;15.40;7.25;;;;;;;22.26;45.30;93696.47;4990737;28;20306;-82
2022/07/26 03:08:10;;;;;;;10.32;7.53;;;;;;;22.33;45.21;93705.75;4992275;28;20095;-81
2022/07/26 03:10:35;;;;;;;8.50;6.47;;;;;;;22.25;45.36;93700.31;4991830;28;20069;-82
2022/07/26 03:13:00;;;;;;;9.00;7.50;;;;;;;22.10;45.25;93685.22;4991502;28;20553;-82
2022/07/26 03:15:26;;;;;;;10.77;7.95;;;;;;;22.17;45.66;93703.41;4991171;28;20030;-82
2022/07/26 03:17:51;;;;;;;7.75;6.93;;;;;;;22.11;45.91;93703.03;4992326;28;20404;-82
2022/07/26 03:20:17;;;;;;;10.13;7.75;;;;;;;22.00;45.78;93687.97;4990950;28;20036;-82
2022/07/26 03:22:43;;;;;;;9.90;7.35;;;;;;;22.08;45.95;93703.03;4992439;28;20030;-82
2022/07/26 03:25:09;;;;;;;8.93;6.75;;;;;;;21.96;45.99;93690.66;5005013;28;20017;-81
2022/07/26 03:27:34;;;;;;;10.88;7.40;;;;;;;22.01;46.16;93714.63;4993183;28;20290;-82
2022/07/26 03:29:59;;;;;;;9.57;7.07;;;;;;;21.98;45.94;93712.72;4992150;28;20445;-82
2022/07/26 03:32:25;;;;;;;10.43;7.75;;;;;;;21.92;45.93;93695.31;4992388;28;20038;-82
2022/07/26 03:34:51;;;;;;;13.10;7.32;;;;;;;21.99;45.96;93698.00;4991387;28;20088;-83
2022/07/26 03:37:17;;;;;;;9.00;7.35;;;;;;;22.10;46.17;93709.59;4992718;28;20057;-82
2022/07/26 03:39:43;;;;;;;8.00;6.35;;;;;;;22.08;45.99;93706.53;4992292;28;20049;-82
2022/07/26 03:42:08;;;;;;;9.00;7.03;;;;;;;21.94;46.09;93678.69;4991533;28;20723;-82
2022/07/26 03:44:34;;;;;;;10.45;8.00;;;;;;;21.94;46.36;93679.47;4992453;28;20014;-81
2022/07/26 03:46:59;;;;;;;17.02;8.75;;;;;;;21.96;46.33;93690.66;5005819;28;20558;-82
2022/07/26 03:49:25;;;;;;;11.32;7.82;;;;;;;21.98;46.45;93692.97;4991814;28;20474;-82
2022/07/26 03:51:50;;;;;;;8.30;7.28;;;;;;;22.03;46.67;93693.38;4992983;28;20103;-82
2022/07/26 03:54:16;;;;;;;8.57;7.57;;;;;;;22.13;47.02;93702.66;4992308;28;20394;-82
2022/07/26 03:56:41;;;;;;;12.13;7.47;;;;;;;22.19;47.05;93707.25;4992676;28;20074;-82
2022/07/26 03:59:09;;;;;;;12.18;7.85;;;;;;;22.24;47.05;93696.06;5006378;28;20049;-81
2022/07/26 04:01:40;;;;;;;13.57;8.05;;;;;;;22.18;47.05;93683.28;4991754;28;20052;-82
2022/07/26 04:04:07;;;;;;;10.38;7.68;;;;;;;22.35;47.24;93703.41;4996332;28;20057;-82
2022/07/26 04:06:32;;;;;;;9.30;7.93;;;;;;;22.23;47.44;93689.13;4989684;28;20087;-83
2022/07/26 04:08:57;;;;;;;8.55;7.40;;;;;;;22.45;47.55;93702.59;4987943;28;20507;-81
2022/07/26 04:11:23;;;;;;;9.73;8.00;;;;;;;22.54;47.77;93708.38;4991637;28;20022;-82
2022/07/26 04:13:48;;;;;;;11.05;8.57;;;;;;;22.53;47.40;93693.31;4990010;28;20061;-81
2022/07/26 04:16:13;;;;;;;11.23;8.88;;;;;;;22.60;47.24;93704.91;4990842;28;20026;-82
2022/07/26 04:18:39;;;;;;;12.60;8.68;;;;;;;22.60;47.11;93683.22;4989297;28;20440;-82
2022/07/26 04:21:04;;;;;;;13.85;9.48;;;;;;;22.74;47.45;93693.22;4991679;28;20040;-82
2022/07/26 04:23:30;;;;;;;14.18;9.05;;;;;;;22.74;47.23;93682.38;4989497;28;20088;-82
2022/07/26 04:25:55;;;;;;;13.10;10.05;;;;;;;22.96;47.01;93699.38;4990754;28;20022;-82
2022/07/26 04:28:21;;;;;;;12.38;10.38;;;;;;;23.01;47.05;93701.69;4990934;28;20033;-82
2022/07/26 04:30:46;;;;;;;13.23;10.07;;;;;;;22.98;47.05;93681.53;5006164;28;20030;-81
2022/07/26 04:33:11;;;;;;;11.93;10.13;;;;;;;22.96;47.04;93672.28;4988452;28;20038;-82
2022/07/26 04:35:37;;;;;;;13.75;9.93;;;;;;;22.92;46.89;93694.00;5007234;28;20129;-80
2022/07/26 04:38:03;;;;;;;13.40;10.20;;;;;;;23.00;46.41;93679.22;4995107;28;20022;-80
2022/07/26 04:40:32;;;;;;;12.63;9.70;;;;;;;23.03;46.77;93689.28;4991439;28;20033;-82
2022/07/26 04:42:59;;;;;;;13.30;10.77;;;;;;;23.08;46.90;93694.28;4991994;28;20486;-82
2022/07/26 04:45:24;;;;;;;19.25;9.82;;;;;;;23.18;46.95;93695.41;4991585;28;20031;-82
2022/07/26 04:48:10;;;;;;;13.57;9.93;;;;;;;23.44;47.21;93688.66;5096152;27;20736;-81
2022/07/26 04:50:35;;;;;;;12.88;9.02;;;;;;;23.06;47.33;93696.63;5065750;28;20036;-81
2022/07/26 04:53:01;;;;;;;11.75;10.25;;;;;;;23.00;47.04;93678.44;5068011;28;20853;-81
2022/07/26 04:55:27;;;;;;;15.82;10.00;;;;;;;23.21;47.22;93685.72;5065698;28;20566;-81
2022/07/26 04:57:53;;;;;;;15.75;10.48;;;;;;;23.48;47.05;93689.41;5067734;28;20032;-80
2022/07/26 05:00:22;;;;;;;12.75;10.60;;;;;;;23.58;46.43;93680.47;5068846;28;20367;-81
2022/07/26 05:02:48;;;;;;;16.05;10.68;;;;;;;23.72;46.11;93690.44;5071009;28;20033;-82
2022/07/26 05:05:14;;;;;;;15.10;11.18;;;;;;;23.85;45.61;93689.56;5071591;28;20020;-80
2022/07/26 05:07:44;;;;;;;22.25;11.18;;;;;;;23.96;45.88;93690.25;5091112;28;20501;-82
2022/07/26 05:10:10;;;;;;;13.07;10.45;;;;;;;23.96;45.82;93694.91;5086148;28;20024;-82
2022/07/26 05:12:36;;;;;;;15.00;10.32;;;;;;;23.91;45.82;93671.66;5082619;28;20089;-81
2022/07/26 05:15:02;;;;;;;15.45;10.82;;;;;;;23.67;44.92;93656.34;5084275;28;20484;-82
2022/07/26 05:17:28;;;;;;;15.57;10.57;;;;;;;23.84;45.99;93669.03;5086563;28;20500;-82
2022/07/26 05:19:53;;;;;;;15.95;11.00;;;;;;;23.97;45.34;93686.38;5085640;28;20024;-82
2022/07/26 05:22:19;;;;;;;14.13;9.77;;;;;;;24.07;45.08;93667.66;5085953;28;20055;-82
2022/07/26 05:24:44;;;;;;;13.52;11.10;;;;;;;24.20;44.53;93671.47;5086657;28;20386;-81
2022/07/26 05:27:09;;;;;;;12.73;10.15;;;;;;;24.02;45.25;93675.06;5086744;28;20135;-82
2022/07/26 05:29:35;;;;;;;11.93;10.55;;;;;;;23.75;45.12;93663.28;5084711;28;20031;-83
2022/07/26 05:32:00;;;;;;;13.50;11.27;;;;;;;24.21;45.08;93686.56;5084978;28;20030;-83
2022/07/26 05:34:26;;;;;;;13.80;10.73;;;;;;;24.24;44.94;93683.84;5083813;28;20024;-82
2022/07/26 05:36:51;;;;;;;14.15;10.75;;;;;;;24.37;44.54;93681.38;5087869;28;20397;-83
2022/07/26 05:39:17;;;;;;;13.93;10.65;;;;;;;24.01;44.33;93627.34;5085137;28;20502;-80
2022/07/26 05:41:43;;;;;;;12.88;11.18;;;;;;;24.17;44.23;93677.69;5085921;28;20119;-82
2022/07/26 05:44:08;;;;;;;13.13;11.15;;;;;;;24.36;44.16;93685.25;5083857;28;20166;-82
2022/07/26 05:46:36;;;;;;;15.80;11.65;;;;;;;24.05;44.62;93675.44;5082755;28;20553;-81
2022/07/26 05:49:03;;;;;;;12.57;10.05;;;;;;;24.32;45.21;93684.53;5085290;28;20700;-82
2022/07/26 05:51:29;;;;;;;13.45;10.55;;;;;;;24.21;44.47;93653.97;5081514;28;20068;-82
2022/07/26 05:53:55;;;;;;;13.93;10.73;;;;;;;24.35;44.53;93662.75;5080903;28;20155;-82
2022/07/26 05:56:21;;;;;;;13.45;9.52;;;;;;;24.38;44.48;93661.94;5084818;28;20469;-82
2022/07/26 05:58:46;;;;;;;12.68;10.55;;;;;;;24.46;43.52;93667.31;5070449;28;20024;-82
2022/07/26 06:01:12;;;;;;;13.43;10.30;;;;;;;24.66;43.53;93676.41;5067100;28;20563;-83
2022/07/26 06:03:37;;;;;;;10.77;9.68;;;;;;;24.41;43.39;93635.91;5066030;28;20028;-83
2022/07/26 06:06:03;;;;;;;15.25;10.85;;;;;;;24.85;43.68;93673.88;5065924;28;20020;-82
2022/07/26 06:08:28;;;;;;;11.80;10.52;;;;;;;24.64;44.17;93667.88;5064065;28;21108;-77
2022/07/26 06:10:54;;;;;;;11.75;10.07;;;;;;;24.63;44.35;93660.91;5068380;28;20143;-82
2022/07/26 06:13:19;;;;;;;11.77;9.40;;;;;;;24.58;44.42;93653.97;5065705;28;20944;-83
2022/07/26 06:15:45;;;;;;;13.63;11.77;;;;;;;24.63;44.01;93648.09;5067713;28;20593;-83
2022/07/26 06:18:11;;;;;;;13.45;9.90;;;;;;;24.69;44.50;93659.25;5068699;28;20043;-82
2022/07/26 06:20:39;;;;;;;12.60;10.65;;;;;;;24.65;44.12;93658.53;5069498;28;20433;-83
2022/07/26 06:23:04;;;;;;;15.07;10.23;;;;;;;24.41;44.93;93649.50;5066318;28;20030;-83
2022/07/26 06:25:30;;;;;;;12.35;10.05;;;;;;;24.25;45.23;93646.53;5066346;28;20429;-82
2022/07/26 06:27:55;;;;;;;15.02;11.13;;;;;;;24.51;45.69;93643.16;5069742;28;20103;-82
2022/07/26 06:30:21;;;;;;;11.10;9.80;;;;;;;24.28;45.97;93665.53;5067968;28;20882;-80
2022/07/26 06:32:46;;;;;;;19.48;10.85;;;;;;;24.13;45.84;93647.06;5064450;28;20055;-83
2022/07/26 06:35:13;;;;;;;15.75;10.57;;;;;;;24.17;46.03;93615.19;5062548;28;20028;-83
2022/07/26 06:37:39;;;;;;;10.73;9.20;;;;;;;24.51;46.56;93659.47;5065421;28;20048;-80
2022/07/26 06:40:07;;;;;;;10.25;8.90;;;;;;;24.83;45.64;93659.16;5068298;28;20025;-81
2022/07/26 06:42:32;;;;;;;13.02;9.73;;;;;;;25.15;44.88;93651.34;5070351;28;20508;-82
2022/07/26 06:45:00;;;;;;;14.23;11.15;;;;;;;25.20;45.26;93650.13;5067596;28;20028;-83
2022/07/26 06:47:26;;;;;;;15.63;10.80;;;;;;;24.78;45.56;93644.03;5068297;28;20478;-82
2022/07/26 06:49:52;;;;;;;12.50;10.07;;;;;;;24.63;45.21;93648.09;5062487;28;20615;-81
2022/07/26 06:52:17;;;;;;;16.85;12.20;;;;;;;24.46;46.00;93634.69;5061900;28;20055;-81
2022/07/26 06:54:43;;;;;;;12.07;10.65;;;;;;;24.57;46.16;93630.69;5062727;28;20035;-83
2022/07/26 06:57:08;;;;;;;14.77;10.07;;;;;;;25.00;45.72;93652.72;5066686;28;20020;-81
2022/07/26 06:59:34;;;;;;;14.85;10.35;;;;;;;25.13;44.83;93642.03;5064182;28;20032;-82
2022/07/26 07:02:00;;;;;;;13.75;10.25;;;;;;;25.34;44.00;93633.59;5064266;28;20438;-83
2022/07/26 07:04:28;;;;;;;12.40;10.48;;;;;;;25.24;44.02;93639.94;5064308;28;20545;-83
2022/07/26 07:06:53;;;;;;;12.02;9.60;;;;;;;25.46;44.55;93654.84;5062467;28;20039;-81
2022/07/26 07:09:19;;;;;;;11.93;9.90;;;;;;;25.63;43.29;93650.28;5064150;28;20032;-83
2022/07/26 07:11:44;;;;;;;13.27;10.25;;;;;;;25.80;43.02;93646.53;5063336;28;20490;-82
2022/07/26 07:14:09;;;;;;;13.05;9.45;;;;;;;25.92;43.46;93656.06;5064780;28;20031;-82
2022/07/26 07:16:35;;;;;;;15.00;11.02;;;;;;;26.07;41.84;93632.84;5062648;28;20024;-83
2022/07/26 07:19:00;;;;;;;14.38;10.27;;;;;;;26.19;41.55;93643.19;5066035;28;20115;-79
2022/07/26 07:21:26;;;;;;;11.27;10.10;;;;;;;26.16;42.17;93638.53;5065615;28;20031;-83
2022/07/26 07:23:52;;;;;;;13.40;11.35;;;;;;;25.92;42.04;93594.19;5067079;28;20020;-81
2022/07/26 07:26:18;;;;;;;15.23;10.40;;;;;;;26.30;42.25;93643.72;5062707;28;20033;-82
2022/07/26 07:28:44;;;;;;;15.45;10.32;;;;;;;26.23;42.78;93643.09;5062316;28;20175;-82
2022/07/26 07:31:10;;;;;;;11.70;10.27;;;;;;;26.42;41.61;93640.41;5064642;28;20434;-77
2022/07/26 07:33:35;;;;;;;10.90;9.65;;;;;;;26.42;41.48;93617.81;5067528;28;20147;-83
2022/07/26 07:36:01;;;;;;;18.88;10.63;;;;;;;26.46;42.22;93635.69;5068545;28;20050;-82
2022/07/26 07:38:26;;;;;;;14.40;11.40;;;;;;;26.21;41.02;93629.09;5062017;28;20028;-83
2022/07/26 07:40:52;;;;;;;17.70;11.18;;;;;;;26.57;42.59;93648.34;5065094;28;20197;-82
2022/07/26 07:43:17;;;;;;;12.10;10.23;;;;;;;26.60;42.48;93625.69;5066450;28;21068;-82
2022/07/26 07:45:42;;;;;;;15.52;11.57;;;;;;;26.31;42.26;93652.69;5063905;28;20039;-83
2022/07/26 07:48:08;;;;;;;13.00;10.77;;;;;;;26.46;42.28;93630.22;5066314;28;20032;-83
2022/07/26 07:50:33;;;;;;;14.77;11.88;;;;;;;26.39;42.48;93633.06;5064616;28;20032;-82
2022/07/26 07:52:58;;;;;;;15.82;11.48;;;;;;;26.20;43.17;93635.78;5064916;28;20141;-83
2022/07/26 07:55:24;;;;;;;12.40;10.77;;;;;;;26.35;42.95;93623.41;5063382;28;20043;-83
2022/07/26 07:57:49;;;;;;;13.68;10.52;;;;;;;26.60;42.20;93639.31;5063374;28;20131;-81
2022/07/26 08:00:17;;;;;;;15.07;10.43;;;;;;;26.66;42.55;93635.69;5065981;28;20028;-81
2022/07/26 08:02:44;;;;;;;14.75;10.77;;;;;;;26.64;42.12;93610.03;5065781;28;20586;-83
2022/07/26 08:05:09;;;;;;;13.98;11.05;;;;;;;26.72;42.19;93635.97;5063305;28;20401;-82
2022/07/26 08:07:35;;;;;;;12.20;10.90;;;;;;;26.50;42.19;93620.00;5067595;28;20097;-83
2022/07/26 08:10:00;;;;;;;17.60;10.77;;;;;;;26.60;42.56;93621.00;5064573;28;20651;-78
2022/07/26 08:12:26;;;;;;;12.65;10.98;;;;;;;26.73;41.98;93626.59;5067583;28;20103;-82
2022/07/26 08:14:51;;;;;;;16.15;11.95;;;;;;;26.85;41.33;93623.22;5063435;28;20483;-82
2022/07/26 08:17:16;;;;;;;13.95;11.52;;;;;;;26.79;41.09;93620.22;5064465;28;20128;-83
2022/07/26 08:19:42;;;;;;;13.75;11.00;;;;;;;26.81;41.18;93611.63;5064531;28;20383;-83
2022/07/26 08:22:07;;;;;;;13.55;11.02;;;;;;;26.92;41.33;93623.88;5063329;28;20081;-81
2022/07/26 08:24:34;;;;;;;17.85;11.82;;;;;;;26.86;41.08;93616.59;5057524;28;20596;-82
2022/07/26 08:26:59;;;;;;;13.60;11.73;;;;;;;26.77;41.53;93616.38;5064003;28;20016;-83
2022/07/26 08:29:24;;;;;;;17.65;11.15;;;;;;;26.86;41.38;93613.84;5068813;28;20028;-83
2022/07/26 08:31:51;;;;;;;12.70;11.07;;;;;;;26.60;40.97;93595.69;5070931;28;20539;-82
2022/07/26 08:34:17;;;;;;;13.65;11.27;;;;;;;26.82;42.66;93615.91;5068498;28;20039;-83
2022/07/26 08:36:43;;;;;;;16.27;11.32;;;;;;;26.24;42.19;93609.22;5070071;28;20016;-82
2022/07/26 08:39:08;;;;;;;13.55;10.95;;;;;;;26.33;42.57;93607.47;5067476;28;20035;-83
2022/07/26 08:41:35;;;;;;;11.70;10.50;;;;;;;26.50;42.25;93587.28;5069756;28;20119;-83
2022/07/26 08:44:05;;;;;;;13.00;10.63;;;;;;;26.61;41.79;93576.19;5065988;28;20042;-83
2022/07/26 08:46:34;;;;;;;13.13;10.93;;;;;;;26.70;43.60;93589.25;5066091;28;20044;-82
2022/07/26 08:48:59;;;;;;;17.73;11.27;;;;;;;26.94;40.90;93607.06;5070052;28;20050;-82
2022/07/26 08:51:25;;;;;;;16.58;10.50;;;;;;;26.98;41.40;93602.31;5067569;28;20495;-83
2022/07/26 08:53:57;;;;;;;13.48;11.32;;;;;;;26.62;40.67;93593.31;5062976;28;20106;-82
2022/07/26 08:56:22;;;;;;;13.10;11.63;;;;;;;26.17;41.47;93601.16;5068807;28;20478;-82
2022/07/26 08:58:48;;;;;;;16.95;11.80;;;;;;;26.08;41.11;93588.09;5066750;28;20443;-83
2022/07/26 09:01:14;;;;;;;15.65;10.68;;;;;;;26.37;42.09;93597.25;5067398;28;20032;-82
2022/07/26 09:03:40;;;;;;;17.73;11.15;;;;;;;26.40;41.83;93593.69;5068889;28;20032;-82
2022/07/26 09:06:17;;;;;;;12.50;10.30;;;;;;;26.69;41.28;93587.72;5066856;28;20125;-83
2022/07/26 09:08:44;;;;;;;14.57;11.88;;;;;;;26.82;41.26;93586.66;5067829;28;20139;-83
2022/07/26 09:11:22;;;;;;;13.52;10.60;;;;;;;27.14;41.22;93607.81;5062652;28;20024;-81
2022/07/26 09:13:52;;;;;;;12.68;10.68;;;;;;;27.21;40.72;93580.38;5060747;28;20051;-83
2022/07/26 09:16:17;;;;;;;12.70;10.57;;;;;;;27.25;39.43;93575.59;5066702;28;20053;-83
2022/07/26 09:18:43;;;;;;;12.75;10.27;;;;;;;27.55;38.89;93601.81;5066396;28;20013;-83
2022/07/26 09:21:26;;;;;;;16.73;10.57;;;;;;;27.63;37.56;93597.75;5066462;28;20028;-84
2022/07/26 09:23:52;;;;;;;14.18;11.15;;;;;;;27.20;38.36;93581.56;5068761;28;20031;-83
2022/07/26 09:26:21;;;;;;;11.75;9.93;;;;;;;27.22;38.55;93576.47;5069268;28;20021;-83
2022/07/26 09:29:01;;;;;;;11.52;10.32;;;;;;;27.46;38.65;93590.72;5067297;28;20031;-83
2022/07/26 09:31:26;;;;;;;15.23;10.02;;;;;;;27.38;38.77;93587.38;5075405;28;20025;-83
2022/07/26 09:33:51;;;;;;;12.50;9.88;;;;;;;27.53;37.85;93578.84;5071512;28;20081;-82
2022/07/26 09:36:17;;;;;;;16.30;10.25;;;;;;;27.70;36.67;93588.63;5075464;28;20115;-83
2022/07/26 09:38:45;;;;;;;9.75;8.70;;;;;;;27.39;37.28;93571.75;5073301;28;20039;-83
2022/07/26 09:41:18;;;;;;;10.77;9.27;;;;;;;27.74;37.28;93584.59;5070013;28;20482;-82
2022/07/26 09:43:43;;;;;;;14.13;10.48;;;;;;;27.78;36.09;93570.84;5075390;28;20513;-82
2022/07/26 09:46:09;;;;;;;11.23;10.02;;;;;;;27.59;36.97;93566.25;5071181;28;20052;-82
2022/07/26 09:48:38;;;;;;;12.60;9.45;;;;;;;27.67;36.21;93581.25;5071589;28;20545;-82
2022/07/26 09:51:04;;;;;;;11.48;10.20;;;;;;;27.81;36.03;93572.75;5071004;28;20115;-82
2022/07/26 09:53:41;;;;;;;12.10;10.77;;;;;;;27.84;36.14;93577.34;5070537;28;20024;-82
2022/07/26 09:56:07;;;;;;;11.45;10.25;;;;;;;27.74;35.71;93578.38;5070212;28;20132;-84
2022/07/26 09:58:34;;;;;;;12.70;10.88;;;;;;;27.52;35.49;93571.88;5070916;28;20028;-83
2022/07/26 10:01:00;;;;;;;13.63;10.45;;;;;;;26.98;36.46;93564.84;5069298;28;20546;-83
2022/07/26 10:03:25;;;;;;;11.50;10.23;;;;;;;27.11;36.41;93575.91;5069845;28;20101;-83
2022/07/26 10:05:51;;;;;;;7.90;6.75;;;;;;;26.74;31.89;93530.69;5069213;28;20669;-83
2022/07/26 10:08:17;;;;;;;8.50;7.60;;;;;;;26.88;33.20;93562.38;5068074;28;20024;-83
2022/07/26 10:10:51;;;;;;;8.50;7.10;;;;;;;26.94;31.59;93569.63;5071007;28;20027;-83
2022/07/26 10:13:16;;;;;;;9.73;7.63;;;;;;;26.85;32.79;93553.06;5069965;28;20470;-83
2022/07/26 10:15:43;;;;;;;8.40;7.60;;;;;;;26.95;33.08;93562.22;5066301;28;20031;-82
2022/07/26 10:18:26;;;;;;;8.20;7.32;;;;;;;26.95;32.05;93564.94;5067460;28;20986;-82
2022/07/26 10:20:51;;;;;;;6.75;6.05;;;;;;;26.88;32.26;93556.91;5071217;28;20485;-82
2022/07/26 10:23:44;;;;;;;8.38;6.97;;;;;;;27.12;32.52;93555.63;5068322;28;20098;-82
2022/07/26 10:26:30;;;;;;;9.82;7.15;;;;;;;27.29;31.31;93548.97;5056318;28;20047;-82
2022/07/26 10:29:22;;;;;;;7.70;6.90;;;;;;;26.88;30.87;93494.94;5061484;28;20081;-83
2022/07/26 10:32:14;;;;;;;8.27;6.78;;;;;;;27.51;33.41;93548.47;5071219;27;20404;-80
2022/07/26 10:34:40;;;;;;;9.38;7.65;;;;;;;27.52;32.54;93537.09;5062796;28;20035;-83
2022/07/26 10:37:18;;;;;;;7.45;6.72;;;;;;;27.78;31.45;93546.25;5066850;28;20482;-82
2022/07/26 10:39:44;;;;;;;7.80;6.75;;;;;;;28.01;32.53;93532.38;5065288;28;20028;-83
2022/07/26 10:42:09;;;;;;;8.48;7.13;;;;;;;27.94;30.45;93543.50;5064748;28;20030;-82
2022/07/26 10:44:38;;;;;;;8.15;6.55;;;;;;;27.89;30.69;93540.53;5066104;28;20103;-82
2022/07/26 10:47:06;;;;;;;7.40;6.60;;;;;;;27.98;30.18;93538.72;5066012;28;20033;-80
2022/07/26 10:50:01;;;;;;;6.93;5.20;;;;;;;28.32;30.67;93529.22;5064342;28;20030;-83
2022/07/26 10:52:29;;;;;;;8.15;5.72;;;;;;;28.30;29.10;93505.06;5046479;28;20540;-81
2022/07/26 10:54:57;;;;;;;7.32;5.70;;;;;;;28.24;27.21;93528.69;5066237;28;20335;-83
2022/07/26 10:57:31;;;;;;;6.72;6.05;;;;;;;28.35;27.20;93515.47;5066452;28;20024;-83
2022/07/26 10:59:58;;;;;;;6.25;5.53;;;;;;;28.35;27.17;93511.97;5068429;28;20016;-82
2022/07/26 11:02:30;;;;;;;7.07;5.65;;;;;;;28.11;26.52;93517.69;5067659;28;20042;-80
2022/07/26 11:05:11;;;;;;;7.35;6.30;;;;;;;28.33;29.92;93509.66;5068250;28;20335;-83
2022/07/26 11:07:55;;;;;;;6.65;5.72;;;;;;;28.45;31.07;93516.38;5067722;28;20801;-83
2022/07/26 11:10:23;;;;;;;8.07;6.00;;;;;;;28.49;28.14;93484.22;5074243;28;20020;-80
2022/07/26 11:13:04;;;;;;;6.97;5.97;;;;;;;28.67;27.30;93495.44;5068492;28;20031;-83
2022/07/26 11:15:30;;;;;;;7.30;6.25;;;;;;;28.62;28.83;93487.72;5068216;28;20067;-81
2022/07/26 11:18:28;;;;;;;7.47;5.90;;;;;;;28.43;27.76;93491.41;5066792;28;20122;-81
2022/07/26 11:20:56;;;;;;;8.48;6.05;;;;;;;28.08;28.73;93493.91;5059576;28;20074;-82
2022/07/26 11:23:32;;;;;;;7.05;6.28;;;;;;;28.14;28.77;93470.34;5068971;28;20097;-82